sensor_id;sensor_type;location;lat;lon;timestamp;P1;durP1;ratioP1;P2;durP2;ratioP2
54795;SDS011;40693;43.884;20.340;2023-03-01T00:00:53;29.60;;;18.80;;
54795;SDS011;40693;43.884;20.340;2023-03-01T00:03:19;26.27;;;17.90;;
54795;SDS011;40693;43.884;20.340;2023-03-01T00:05:45;34.87;;;19.10;;
54795;SDS011;40693;43.884;20.340;2023-03-01T00:08:12;38.90;;;20.17;;
54795;SDS011;40693;43.884;20.340;2023-03-01T00:10:38;34.23;;;21.93;;
54795;SDS011;40693;43.884;20.340;2023-03-01T00:13:03;40.07;;;25.03;;
54795;SDS011;40693;43.884;20.340;2023-03-01T00:15:30;48.63;;;28.47;;
54795;SDS011;40693;43.884;20.340;2023-03-01T00:17:57;43.90;;;25.47;;
54795;SDS011;40693;43.884;20.340;2023-03-01T00:20:23;34.53;;;20.63;;
54795;SDS011;40693;43.884;20.340;2023-03-01T00:22:49;31.70;;;18.37;;
54795;SDS011;40693;43.884;20.340;2023-03-01T00:25:14;27.50;;;16.33;;
54795;SDS011;40693;43.884;20.340;2023-03-01T00:27:40;30.33;;;19.43;;
54795;SDS011;40693;43.884;20.340;2023-03-01T00:30:06;44.93;;;23.50;;
54795;SDS011;40693;43.884;20.340;2023-03-01T00:32:33;37.93;;;21.10;;
54795;SDS011;40693;43.884;20.340;2023-03-01T00:35:02;36.37;;;20.60;;
54795;SDS011;40693;43.884;20.340;2023-03-01T00:37:28;35.93;;;20.13;;
54795;SDS011;40693;43.884;20.340;2023-03-01T00:39:53;25.13;;;15.23;;
54795;SDS011;40693;43.884;20.340;2023-03-01T00:42:19;25.63;;;13.80;;
54795;SDS011;40693;43.884;20.340;2023-03-01T00:44:45;26.27;;;16.00;;
54795;SDS011;40693;43.884;20.340;2023-03-01T00:47:11;21.10;;;14.80;;
54795;SDS011;40693;43.884;20.340;2023-03-01T00:49:37;32.30;;;15.67;;
54795;SDS011;40693;43.884;20.340;2023-03-01T00:52:03;23.50;;;13.83;;
54795;SDS011;40693;43.884;20.340;2023-03-01T00:54:28;27.37;;;15.17;;
54795;SDS011;40693;43.884;20.340;2023-03-01T00:56:54;28.83;;;16.27;;
54795;SDS011;40693;43.884;20.340;2023-03-01T00:59:20;29.10;;;16.77;;
54795;SDS011;40693;43.884;20.340;2023-03-01T01:01:45;24.80;;;15.33;;
54795;SDS011;40693;43.884;20.340;2023-03-01T01:04:12;29.07;;;15.73;;
54795;SDS011;40693;43.884;20.340;2023-03-01T01:06:40;22.97;;;14.20;;
54795;SDS011;40693;43.884;20.340;2023-03-01T01:09:08;25.80;;;16.33;;
54795;SDS011;40693;43.884;20.340;2023-03-01T01:11:42;29.70;;;14.90;;
54795;SDS011;40693;43.884;20.340;2023-03-01T01:14:12;28.00;;;15.67;;
54795;SDS011;40693;43.884;20.340;2023-03-01T01:16:38;28.87;;;16.40;;
54795;SDS011;40693;43.884;20.340;2023-03-01T01:19:04;24.97;;;14.93;;
54795;SDS011;40693;43.884;20.340;2023-03-01T01:21:30;19.70;;;12.87;;
54795;SDS011;40693;43.884;20.340;2023-03-01T01:23:56;26.83;;;14.37;;
54795;SDS011;40693;43.884;20.340;2023-03-01T01:26:23;26.60;;;14.27;;
54795;SDS011;40693;43.884;20.340;2023-03-01T01:28:52;32.23;;;15.97;;
54795;SDS011;40693;43.884;20.340;2023-03-01T01:31:18;25.63;;;13.40;;
54795;SDS011;40693;43.884;20.340;2023-03-01T01:33:45;31.17;;;17.00;;
54795;SDS011;40693;43.884;20.340;2023-03-01T01:36:11;29.50;;;15.73;;
54795;SDS011;40693;43.884;20.340;2023-03-01T01:38:37;28.57;;;15.60;;
54795;SDS011;40693;43.884;20.340;2023-03-01T01:41:04;32.63;;;16.90;;
54795;SDS011;40693;43.884;20.340;2023-03-01T01:43:32;29.73;;;18.10;;
54795;SDS011;40693;43.884;20.340;2023-03-01T01:46:10;32.75;;;18.52;;
54795;SDS011;40693;43.884;20.340;2023-03-01T01:49:05;23.75;;;14.52;;
54795;SDS011;40693;43.884;20.340;2023-03-01T01:51:39;29.70;;;14.30;;
54795;SDS011;40693;43.884;20.340;2023-03-01T01:54:21;27.80;;;16.67;;
54795;SDS011;40693;43.884;20.340;2023-03-01T01:56:53;28.80;;;14.00;;
54795;SDS011;40693;43.884;20.340;2023-03-01T01:59:23;23.15;;;13.18;;
54795;SDS011;40693;43.884;20.340;2023-03-01T02:01:54;25.77;;;16.30;;
54795;SDS011;40693;43.884;20.340;2023-03-01T02:04:20;28.43;;;16.17;;
54795;SDS011;40693;43.884;20.340;2023-03-01T02:06:49;29.43;;;17.70;;
54795;SDS011;40693;43.884;20.340;2023-03-01T02:09:22;30.10;;;18.57;;
54795;SDS011;40693;43.884;20.340;2023-03-01T02:11:48;31.37;;;17.93;;
54795;SDS011;40693;43.884;20.340;2023-03-01T02:14:16;31.27;;;16.80;;
54795;SDS011;40693;43.884;20.340;2023-03-01T02:16:42;28.50;;;15.20;;
54795;SDS011;40693;43.884;20.340;2023-03-01T02:19:09;25.93;;;15.23;;
54795;SDS011;40693;43.884;20.340;2023-03-01T02:21:46;22.43;;;11.97;;
54795;SDS011;40693;43.884;20.340;2023-03-01T02:26:58;20.23;;;12.47;;
54795;SDS011;40693;43.884;20.340;2023-03-01T02:29:26;21.83;;;13.60;;
54795;SDS011;40693;43.884;20.340;2023-03-01T02:31:53;20.77;;;13.23;;
54795;SDS011;40693;43.884;20.340;2023-03-01T02:34:22;39.63;;;22.50;;
54795;SDS011;40693;43.884;20.340;2023-03-01T02:36:59;29.17;;;16.30;;
54795;SDS011;40693;43.884;20.340;2023-03-01T02:39:33;35.90;;;19.20;;
54795;SDS011;40693;43.884;20.340;2023-03-01T02:42:06;55.10;;;29.67;;
54795;SDS011;40693;43.884;20.340;2023-03-01T02:44:37;23.87;;;14.57;;
54795;SDS011;40693;43.884;20.340;2023-03-01T02:47:03;25.00;;;14.53;;
54795;SDS011;40693;43.884;20.340;2023-03-01T02:49:32;26.30;;;15.77;;
54795;SDS011;40693;43.884;20.340;2023-03-01T02:54:48;22.87;;;13.57;;
54795;SDS011;40693;43.884;20.340;2023-03-01T02:57:30;21.60;;;13.80;;
54795;SDS011;40693;43.884;20.340;2023-03-01T02:59:59;29.40;;;19.33;;
54795;SDS011;40693;43.884;20.340;2023-03-01T03:02:33;29.50;;;19.67;;
54795;SDS011;40693;43.884;20.340;2023-03-01T03:07:40;33.73;;;20.13;;
54795;SDS011;40693;43.884;20.340;2023-03-01T03:10:09;27.90;;;17.00;;
54795;SDS011;40693;43.884;20.340;2023-03-01T03:12:40;27.42;;;13.50;;
54795;SDS011;40693;43.884;20.340;2023-03-01T03:15:07;26.93;;;15.37;;
54795;SDS011;40693;43.884;20.340;2023-03-01T03:17:38;23.97;;;12.60;;
54795;SDS011;40693;43.884;20.340;2023-03-01T03:20:05;32.03;;;16.40;;
54795;SDS011;40693;43.884;20.340;2023-03-01T03:22:36;22.93;;;12.70;;
54795;SDS011;40693;43.884;20.340;2023-03-01T03:25:08;25.97;;;14.73;;
54795;SDS011;40693;43.884;20.340;2023-03-01T03:27:37;25.83;;;13.97;;
54795;SDS011;40693;43.884;20.340;2023-03-01T03:30:05;22.53;;;12.67;;
54795;SDS011;40693;43.884;20.340;2023-03-01T03:32:39;22.90;;;16.17;;
54795;SDS011;40693;43.884;20.340;2023-03-01T03:35:06;22.27;;;12.77;;
54795;SDS011;40693;43.884;20.340;2023-03-01T03:37:38;25.10;;;15.43;;
54795;SDS011;40693;43.884;20.340;2023-03-01T03:40:23;23.70;;;14.43;;
54795;SDS011;40693;43.884;20.340;2023-03-01T03:42:50;31.63;;;18.70;;
54795;SDS011;40693;43.884;20.340;2023-03-01T03:45:17;26.47;;;18.53;;
54795;SDS011;40693;43.884;20.340;2023-03-01T03:47:43;42.63;;;28.47;;
54795;SDS011;40693;43.884;20.340;2023-03-01T03:50:10;70.93;;;43.40;;
54795;SDS011;40693;43.884;20.340;2023-03-01T03:52:37;68.73;;;41.83;;
54795;SDS011;40693;43.884;20.340;2023-03-01T03:55:04;25.87;;;18.00;;
54795;SDS011;40693;43.884;20.340;2023-03-01T03:57:39;19.90;;;13.10;;
54795;SDS011;40693;43.884;20.340;2023-03-01T04:00:07;24.47;;;14.10;;
54795;SDS011;40693;43.884;20.340;2023-03-01T04:02:39;24.00;;;14.30;;
54795;SDS011;40693;43.884;20.340;2023-03-01T04:05:08;22.40;;;14.30;;
54795;SDS011;40693;43.884;20.340;2023-03-01T04:07:36;24.17;;;15.47;;
54795;SDS011;40693;43.884;20.340;2023-03-01T04:10:06;22.13;;;14.53;;
54795;SDS011;40693;43.884;20.340;2023-03-01T04:12:35;29.88;;;15.48;;
54795;SDS011;40693;43.884;20.340;2023-03-01T04:15:01;25.67;;;17.13;;
54795;SDS011;40693;43.884;20.340;2023-03-01T04:17:53;24.47;;;15.83;;
54795;SDS011;40693;43.884;20.340;2023-03-01T04:20:21;25.50;;;15.50;;
54795;SDS011;40693;43.884;20.340;2023-03-01T04:22:53;29.50;;;16.10;;
54795;SDS011;40693;43.884;20.340;2023-03-01T04:25:23;27.40;;;17.90;;
54795;SDS011;40693;43.884;20.340;2023-03-01T04:27:49;25.90;;;16.27;;
54795;SDS011;40693;43.884;20.340;2023-03-01T04:30:15;22.07;;;12.73;;
54795;SDS011;40693;43.884;20.340;2023-03-01T04:32:41;14.33;;;10.97;;
54795;SDS011;40693;43.884;20.340;2023-03-01T04:35:07;22.93;;;12.87;;
54795;SDS011;40693;43.884;20.340;2023-03-01T04:37:33;20.33;;;12.37;;
54795;SDS011;40693;43.884;20.340;2023-03-01T04:40:00;19.03;;;11.60;;
54795;SDS011;40693;43.884;20.340;2023-03-01T04:42:37;19.17;;;11.87;;
54795;SDS011;40693;43.884;20.340;2023-03-01T04:45:03;15.67;;;9.93;;
54795;SDS011;40693;43.884;20.340;2023-03-01T04:47:38;15.40;;;9.60;;
54795;SDS011;40693;43.884;20.340;2023-03-01T04:50:04;19.17;;;10.97;;
54795;SDS011;40693;43.884;20.340;2023-03-01T04:52:31;15.40;;;10.60;;
54795;SDS011;40693;43.884;20.340;2023-03-01T04:54:57;16.50;;;11.30;;
54795;SDS011;40693;43.884;20.340;2023-03-01T04:57:22;16.60;;;11.43;;
54795;SDS011;40693;43.884;20.340;2023-03-01T04:59:48;28.93;;;14.47;;
54795;SDS011;40693;43.884;20.340;2023-03-01T05:02:14;22.93;;;13.47;;
54795;SDS011;40693;43.884;20.340;2023-03-01T05:04:40;17.80;;;9.87;;
54795;SDS011;40693;43.884;20.340;2023-03-01T05:07:05;17.20;;;10.77;;
54795;SDS011;40693;43.884;20.340;2023-03-01T05:09:31;18.93;;;11.33;;
54795;SDS011;40693;43.884;20.340;2023-03-01T05:11:57;20.53;;;13.10;;
54795;SDS011;40693;43.884;20.340;2023-03-01T05:14:26;25.93;;;15.37;;
54795;SDS011;40693;43.884;20.340;2023-03-01T05:16:52;24.67;;;15.63;;
54795;SDS011;40693;43.884;20.340;2023-03-01T05:19:17;26.97;;;16.37;;
54795;SDS011;40693;43.884;20.340;2023-03-01T05:21:47;23.93;;;16.63;;
54795;SDS011;40693;43.884;20.340;2023-03-01T05:24:32;17.20;;;10.73;;
54795;SDS011;40693;43.884;20.340;2023-03-01T05:27:00;27.47;;;15.83;;
54795;SDS011;40693;43.884;20.340;2023-03-01T05:29:27;29.63;;;17.13;;
54795;SDS011;40693;43.884;20.340;2023-03-01T05:31:58;26.27;;;16.87;;
54795;SDS011;40693;43.884;20.340;2023-03-01T05:34:27;26.90;;;16.70;;
54795;SDS011;40693;43.884;20.340;2023-03-01T05:36:55;36.07;;;20.47;;
54795;SDS011;40693;43.884;20.340;2023-03-01T05:39:21;42.33;;;24.07;;
54795;SDS011;40693;43.884;20.340;2023-03-01T05:41:52;29.53;;;19.23;;
54795;SDS011;40693;43.884;20.340;2023-03-01T05:44:19;30.73;;;19.60;;
54795;SDS011;40693;43.884;20.340;2023-03-01T05:46:45;33.00;;;19.07;;
54795;SDS011;40693;43.884;20.340;2023-03-01T05:49:11;37.00;;;21.37;;
54795;SDS011;40693;43.884;20.340;2023-03-01T05:51:41;26.87;;;18.60;;
54795;SDS011;40693;43.884;20.340;2023-03-01T05:54:12;28.30;;;17.87;;
54795;SDS011;40693;43.884;20.340;2023-03-01T05:56:38;30.70;;;17.23;;
54795;SDS011;40693;43.884;20.340;2023-03-01T05:59:04;30.57;;;19.07;;
54795;SDS011;40693;43.884;20.340;2023-03-01T06:01:30;37.17;;;23.40;;
54795;SDS011;40693;43.884;20.340;2023-03-01T06:03:59;35.80;;;21.67;;
54795;SDS011;40693;43.884;20.340;2023-03-01T06:06:25;51.03;;;31.03;;
54795;SDS011;40693;43.884;20.340;2023-03-01T06:08:52;55.73;;;31.07;;
54795;SDS011;40693;43.884;20.340;2023-03-01T06:11:18;75.87;;;42.03;;
54795;SDS011;40693;43.884;20.340;2023-03-01T06:13:45;64.97;;;39.10;;
54795;SDS011;40693;43.884;20.340;2023-03-01T06:16:11;37.43;;;23.40;;
54795;SDS011;40693;43.884;20.340;2023-03-01T06:18:38;34.57;;;20.97;;
54795;SDS011;40693;43.884;20.340;2023-03-01T06:21:05;45.80;;;26.83;;
54795;SDS011;40693;43.884;20.340;2023-03-01T06:23:32;44.47;;;26.47;;
54795;SDS011;40693;43.884;20.340;2023-03-01T06:25:58;39.73;;;24.80;;
54795;SDS011;40693;43.884;20.340;2023-03-01T06:28:24;39.53;;;23.60;;
54795;SDS011;40693;43.884;20.340;2023-03-01T06:30:51;42.23;;;24.53;;
54795;SDS011;40693;43.884;20.340;2023-03-01T06:33:17;45.80;;;29.77;;
54795;SDS011;40693;43.884;20.340;2023-03-01T06:35:47;44.27;;;28.70;;
54795;SDS011;40693;43.884;20.340;2023-03-01T06:38:13;61.83;;;43.30;;
54795;SDS011;40693;43.884;20.340;2023-03-01T06:40:44;51.27;;;35.47;;
54795;SDS011;40693;43.884;20.340;2023-03-01T06:43:16;44.45;;;32.10;;
54795;SDS011;40693;43.884;20.340;2023-03-01T06:45:41;45.80;;;26.10;;
54795;SDS011;40693;43.884;20.340;2023-03-01T06:48:08;40.73;;;27.10;;
54795;SDS011;40693;43.884;20.340;2023-03-01T06:50:34;41.27;;;26.83;;
54795;SDS011;40693;43.884;20.340;2023-03-01T06:53:00;44.57;;;26.43;;
54795;SDS011;40693;43.884;20.340;2023-03-01T06:55:25;53.33;;;33.33;;
54795;SDS011;40693;43.884;20.340;2023-03-01T06:57:55;49.30;;;30.13;;
54795;SDS011;40693;43.884;20.340;2023-03-01T07:00:21;53.53;;;32.07;;
54795;SDS011;40693;43.884;20.340;2023-03-01T07:02:48;42.33;;;26.67;;
54795;SDS011;40693;43.884;20.340;2023-03-01T07:05:14;60.20;;;39.33;;
54795;SDS011;40693;43.884;20.340;2023-03-01T07:07:39;51.10;;;34.43;;
54795;SDS011;40693;43.884;20.340;2023-03-01T07:10:05;41.27;;;24.77;;
54795;SDS011;40693;43.884;20.340;2023-03-01T07:12:32;42.53;;;26.47;;
54795;SDS011;40693;43.884;20.340;2023-03-01T07:14:58;62.40;;;34.80;;
54795;SDS011;40693;43.884;20.340;2023-03-01T07:17:24;69.33;;;40.13;;
54795;SDS011;40693;43.884;20.340;2023-03-01T07:19:50;102.47;;;60.13;;
54795;SDS011;40693;43.884;20.340;2023-03-01T07:22:15;115.10;;;73.80;;
54795;SDS011;40693;43.884;20.340;2023-03-01T07:24:42;80.47;;;51.30;;
54795;SDS011;40693;43.884;20.340;2023-03-01T07:27:08;57.83;;;33.63;;
54795;SDS011;40693;43.884;20.340;2023-03-01T07:29:34;76.87;;;48.53;;
54795;SDS011;40693;43.884;20.340;2023-03-01T07:32:01;208.43;;;114.83;;
54795;SDS011;40693;43.884;20.340;2023-03-01T07:34:28;118.80;;;67.83;;
54795;SDS011;40693;43.884;20.340;2023-03-01T07:36:54;95.20;;;57.40;;
54795;SDS011;40693;43.884;20.340;2023-03-01T07:39:20;109.37;;;67.97;;
54795;SDS011;40693;43.884;20.340;2023-03-01T07:41:48;132.23;;;75.73;;
54795;SDS011;40693;43.884;20.340;2023-03-01T07:44:14;75.13;;;43.57;;
54795;SDS011;40693;43.884;20.340;2023-03-01T07:46:41;71.00;;;41.50;;
54795;SDS011;40693;43.884;20.340;2023-03-01T07:49:07;82.40;;;51.97;;
54795;SDS011;40693;43.884;20.340;2023-03-01T07:51:33;81.13;;;45.13;;
54795;SDS011;40693;43.884;20.340;2023-03-01T07:53:58;49.13;;;30.57;;
54795;SDS011;40693;43.884;20.340;2023-03-01T07:56:24;47.93;;;30.67;;
54795;SDS011;40693;43.884;20.340;2023-03-01T07:58:50;54.60;;;30.97;;
54795;SDS011;40693;43.884;20.340;2023-03-01T08:01:17;55.37;;;31.97;;
54795;SDS011;40693;43.884;20.340;2023-03-01T08:03:44;54.87;;;31.07;;
54795;SDS011;40693;43.884;20.340;2023-03-01T08:06:11;58.67;;;38.43;;
54795;SDS011;40693;43.884;20.340;2023-03-01T08:08:38;72.03;;;46.67;;
54795;SDS011;40693;43.884;20.340;2023-03-01T08:11:05;90.17;;;51.63;;
54795;SDS011;40693;43.884;20.340;2023-03-01T08:13:32;82.90;;;48.70;;
54795;SDS011;40693;43.884;20.340;2023-03-01T08:16:02;88.27;;;52.03;;
54795;SDS011;40693;43.884;20.340;2023-03-01T08:18:32;73.90;;;45.67;;
54795;SDS011;40693;43.884;20.340;2023-03-01T08:21:02;69.00;;;42.67;;
54795;SDS011;40693;43.884;20.340;2023-03-01T08:23:33;66.30;;;38.70;;
54795;SDS011;40693;43.884;20.340;2023-03-01T08:26:06;60.40;;;34.97;;
54795;SDS011;40693;43.884;20.340;2023-03-01T08:28:43;63.63;;;37.13;;
54795;SDS011;40693;43.884;20.340;2023-03-01T08:34:01;80.83;;;48.50;;
54795;SDS011;40693;43.884;20.340;2023-03-01T08:36:31;74.93;;;44.63;;
54795;SDS011;40693;43.884;20.340;2023-03-01T08:39:00;100.37;;;53.40;;
54795;SDS011;40693;43.884;20.340;2023-03-01T08:41:26;94.03;;;49.33;;
54795;SDS011;40693;43.884;20.340;2023-03-01T08:43:52;83.70;;;48.83;;
54795;SDS011;40693;43.884;20.340;2023-03-01T08:46:23;81.70;;;47.97;;
54795;SDS011;40693;43.884;20.340;2023-03-01T08:48:52;75.80;;;44.50;;
54795;SDS011;40693;43.884;20.340;2023-03-01T08:51:18;74.27;;;43.20;;
54795;SDS011;40693;43.884;20.340;2023-03-01T08:53:46;80.20;;;43.20;;
54795;SDS011;40693;43.884;20.340;2023-03-01T08:56:12;86.23;;;50.03;;
54795;SDS011;40693;43.884;20.340;2023-03-01T08:58:39;136.40;;;76.30;;
54795;SDS011;40693;43.884;20.340;2023-03-01T09:01:08;132.10;;;70.23;;
54795;SDS011;40693;43.884;20.340;2023-03-01T09:03:35;100.17;;;55.10;;
54795;SDS011;40693;43.884;20.340;2023-03-01T09:06:02;96.17;;;53.20;;
54795;SDS011;40693;43.884;20.340;2023-03-01T09:08:29;93.40;;;51.90;;
54795;SDS011;40693;43.884;20.340;2023-03-01T09:10:55;99.13;;;53.10;;
54795;SDS011;40693;43.884;20.340;2023-03-01T09:13:21;97.20;;;52.27;;
54795;SDS011;40693;43.884;20.340;2023-03-01T09:15:50;92.23;;;49.63;;
54795;SDS011;40693;43.884;20.340;2023-03-01T09:18:17;84.07;;;46.97;;
54795;SDS011;40693;43.884;20.340;2023-03-01T09:20:42;89.07;;;50.17;;
54795;SDS011;40693;43.884;20.340;2023-03-01T09:23:08;80.47;;;44.63;;
54795;SDS011;40693;43.884;20.340;2023-03-01T09:25:34;92.90;;;50.90;;
54795;SDS011;40693;43.884;20.340;2023-03-01T09:28:00;104.53;;;55.90;;
54795;SDS011;40693;43.884;20.340;2023-03-01T09:30:26;108.93;;;58.30;;
54795;SDS011;40693;43.884;20.340;2023-03-01T09:32:52;113.40;;;62.70;;
54795;SDS011;40693;43.884;20.340;2023-03-01T09:35:18;109.50;;;61.23;;
54795;SDS011;40693;43.884;20.340;2023-03-01T09:37:45;101.00;;;59.93;;
54795;SDS011;40693;43.884;20.340;2023-03-01T09:40:29;94.23;;;58.00;;
54795;SDS011;40693;43.884;20.340;2023-03-01T09:43:15;87.63;;;49.70;;
54795;SDS011;40693;43.884;20.340;2023-03-01T09:45:50;80.40;;;46.53;;
54795;SDS011;40693;43.884;20.340;2023-03-01T09:48:23;79.80;;;50.83;;
54795;SDS011;40693;43.884;20.340;2023-03-01T09:50:58;89.63;;;47.20;;
54795;SDS011;40693;43.884;20.340;2023-03-01T09:53:31;70.50;;;40.60;;
54795;SDS011;40693;43.884;20.340;2023-03-01T09:56:02;70.63;;;42.10;;
54795;SDS011;40693;43.884;20.340;2023-03-01T10:09:37;56.73;;;31.30;;
54795;SDS011;40693;43.884;20.340;2023-03-01T10:12:07;59.73;;;37.90;;
54795;SDS011;40693;43.884;20.340;2023-03-01T10:20:19;78.97;;;47.37;;
54795;SDS011;40693;43.884;20.340;2023-03-01T10:22:50;74.70;;;44.75;;
54795;SDS011;40693;43.884;20.340;2023-03-01T10:31:25;62.35;;;38.47;;
54795;SDS011;40693;43.884;20.340;2023-03-01T10:34:02;68.57;;;38.23;;
54795;SDS011;40693;43.884;20.340;2023-03-01T10:36:33;68.10;;;35.57;;
54795;SDS011;40693;43.884;20.340;2023-03-01T10:38:59;65.43;;;37.70;;
54795;SDS011;40693;43.884;20.340;2023-03-01T10:41:53;61.03;;;37.60;;
54795;SDS011;40693;43.884;20.340;2023-03-01T10:47:27;71.30;;;38.35;;
54795;SDS011;40693;43.884;20.340;2023-03-01T10:49:56;61.73;;;35.73;;
54795;SDS011;40693;43.884;20.340;2023-03-01T10:52:26;54.33;;;32.27;;
54795;SDS011;40693;43.884;20.340;2023-03-01T10:54:57;57.13;;;32.77;;
54795;SDS011;40693;43.884;20.340;2023-03-01T10:57:30;62.75;;;36.47;;
54795;SDS011;40693;43.884;20.340;2023-03-01T11:00:18;78.30;;;48.00;;
54795;SDS011;40693;43.884;20.340;2023-03-01T11:02:51;94.03;;;52.87;;
54795;SDS011;40693;43.884;20.340;2023-03-01T11:05:35;101.80;;;57.08;;
54795;SDS011;40693;43.884;20.340;2023-03-01T11:08:01;95.28;;;50.90;;
54795;SDS011;40693;43.884;20.340;2023-03-01T11:10:29;95.88;;;51.67;;
54795;SDS011;40693;43.884;20.340;2023-03-01T11:13:09;96.32;;;52.88;;
54795;SDS011;40693;43.884;20.340;2023-03-01T11:15:41;92.80;;;51.07;;
54795;SDS011;40693;43.884;20.340;2023-03-01T11:18:22;90.60;;;48.00;;
54795;SDS011;40693;43.884;20.340;2023-03-01T11:20:48;81.73;;;45.57;;
54795;SDS011;40693;43.884;20.340;2023-03-01T11:23:18;91.60;;;48.20;;
54795;SDS011;40693;43.884;20.340;2023-03-01T11:25:55;90.28;;;48.38;;
54795;SDS011;40693;43.884;20.340;2023-03-01T11:28:23;83.93;;;47.53;;
54795;SDS011;40693;43.884;20.340;2023-03-01T11:30:57;92.95;;;52.97;;
54795;SDS011;40693;43.884;20.340;2023-03-01T11:33:40;97.47;;;54.83;;
54795;SDS011;40693;43.884;20.340;2023-03-01T11:38:54;77.63;;;43.47;;
54795;SDS011;40693;43.884;20.340;2023-03-01T11:41:23;79.57;;;46.92;;
54795;SDS011;40693;43.884;20.340;2023-03-01T11:52:40;90.25;;;53.55;;
54795;SDS011;40693;43.884;20.340;2023-03-01T12:05:41;92.30;;;53.03;;
54795;SDS011;40693;43.884;20.340;2023-03-01T12:11:24;84.95;;;50.58;;
54795;SDS011;40693;43.884;20.340;2023-03-01T12:38:17;93.18;;;48.28;;
54795;SDS011;40693;43.884;20.340;2023-03-01T12:51:28;97.30;;;57.40;;
54795;SDS011;40693;43.884;20.340;2023-03-01T12:53:58;90.07;;;53.50;;
54795;SDS011;40693;43.884;20.340;2023-03-01T12:56:28;99.85;;;57.35;;
54795;SDS011;40693;43.884;20.340;2023-03-01T12:59:12;101.53;;;54.58;;
54795;SDS011;40693;43.884;20.340;2023-03-01T13:17:56;143.95;;;76.15;;
54795;SDS011;40693;43.884;20.340;2023-03-01T13:20:27;161.05;;;93.35;;
54795;SDS011;40693;43.884;20.340;2023-03-01T13:33:46;112.13;;;58.88;;
54795;SDS011;40693;43.884;20.340;2023-03-01T13:46:52;104.63;;;66.85;;
54795;SDS011;40693;43.884;20.340;2023-03-01T13:49:21;86.72;;;52.88;;
54795;SDS011;40693;43.884;20.340;2023-03-01T13:51:52;79.35;;;49.70;;
54795;SDS011;40693;43.884;20.340;2023-03-01T13:54:36;85.28;;;48.38;;
54795;SDS011;40693;43.884;20.340;2023-03-01T13:57:03;93.50;;;54.67;;
54795;SDS011;40693;43.884;20.340;2023-03-01T13:59:29;135.98;;;79.00;;
54795;SDS011;40693;43.884;20.340;2023-03-01T14:01:59;124.35;;;70.15;;
54795;SDS011;40693;43.884;20.340;2023-03-01T14:04:30;104.60;;;61.97;;
54795;SDS011;40693;43.884;20.340;2023-03-01T14:07:16;102.88;;;58.55;;
54795;SDS011;40693;43.884;20.340;2023-03-01T14:09:49;95.45;;;55.42;;
54795;SDS011;40693;43.884;20.340;2023-03-01T14:17:52;87.88;;;48.17;;
54795;SDS011;40693;43.884;20.340;2023-03-01T14:20:24;82.87;;;48.47;;
54795;SDS011;40693;43.884;20.340;2023-03-01T14:22:53;84.68;;;49.05;;
54795;SDS011;40693;43.884;20.340;2023-03-01T14:27:56;70.82;;;42.78;;
54795;SDS011;40693;43.884;20.340;2023-03-01T14:30:32;95.40;;;55.85;;
54795;SDS011;40693;43.884;20.340;2023-03-01T14:33:05;115.63;;;65.30;;
54795;SDS011;40693;43.884;20.340;2023-03-01T14:35:42;88.32;;;52.42;;
54795;SDS011;40693;43.884;20.340;2023-03-01T14:38:20;91.47;;;52.17;;
54795;SDS011;40693;43.884;20.340;2023-03-01T14:40:51;91.65;;;53.65;;
54795;SDS011;40693;43.884;20.340;2023-03-01T14:43:22;111.43;;;64.43;;
54795;SDS011;40693;43.884;20.340;2023-03-01T14:45:51;100.93;;;59.90;;
54795;SDS011;40693;43.884;20.340;2023-03-01T14:48:17;92.32;;;57.53;;
54795;SDS011;40693;43.884;20.340;2023-03-01T14:50:44;79.10;;;50.63;;
54795;SDS011;40693;43.884;20.340;2023-03-01T14:53:21;83.32;;;50.95;;
54795;SDS011;40693;43.884;20.340;2023-03-01T14:55:59;83.75;;;49.08;;
54795;SDS011;40693;43.884;20.340;2023-03-01T14:58:29;83.00;;;50.13;;
54795;SDS011;40693;43.884;20.340;2023-03-01T15:00:59;83.50;;;55.83;;
54795;SDS011;40693;43.884;20.340;2023-03-01T15:06:01;92.80;;;60.58;;
54795;SDS011;40693;43.884;20.340;2023-03-01T15:08:44;95.88;;;62.80;;
54795;SDS011;40693;43.884;20.340;2023-03-01T15:11:31;94.80;;;58.45;;
54795;SDS011;40693;43.884;20.340;2023-03-01T15:13:58;101.75;;;62.13;;
54795;SDS011;40693;43.884;20.340;2023-03-01T15:16:34;105.68;;;66.32;;
54795;SDS011;40693;43.884;20.340;2023-03-01T15:19:06;119.65;;;75.80;;
54795;SDS011;40693;43.884;20.340;2023-03-01T15:21:34;290.95;;;146.23;;
54795;SDS011;40693;43.884;20.340;2023-03-01T15:26:54;119.80;;;75.15;;
54795;SDS011;40693;43.884;20.340;2023-03-01T15:29:34;112.28;;;72.68;;
54795;SDS011;40693;43.884;20.340;2023-03-01T15:32:27;108.78;;;68.57;;
54795;SDS011;40693;43.884;20.340;2023-03-01T15:34:59;130.52;;;71.50;;
54795;SDS011;40693;43.884;20.340;2023-03-01T15:37:39;132.63;;;70.20;;
54795;SDS011;40693;43.884;20.340;2023-03-01T15:40:19;123.13;;;71.68;;
54795;SDS011;40693;43.884;20.340;2023-03-01T15:42:56;100.35;;;61.10;;
54795;SDS011;40693;43.884;20.340;2023-03-01T15:45:24;107.45;;;61.83;;
54795;SDS011;40693;43.884;20.340;2023-03-01T15:50:27;92.78;;;54.42;;
54795;SDS011;40693;43.884;20.340;2023-03-01T15:52:54;105.32;;;64.68;;
54795;SDS011;40693;43.884;20.340;2023-03-01T15:55:24;115.10;;;66.78;;
54795;SDS011;40693;43.884;20.340;2023-03-01T16:00:54;101.35;;;59.08;;
54795;SDS011;40693;43.884;20.340;2023-03-01T16:03:23;110.47;;;67.13;;
54795;SDS011;40693;43.884;20.340;2023-03-01T16:05:50;108.35;;;59.35;;
54795;SDS011;40693;43.884;20.340;2023-03-01T16:08:16;89.95;;;58.47;;
54795;SDS011;40693;43.884;20.340;2023-03-01T16:10:45;98.55;;;56.08;;
54795;SDS011;40693;43.884;20.340;2023-03-01T16:13:13;105.70;;;65.82;;
54795;SDS011;40693;43.884;20.340;2023-03-01T16:15:39;98.50;;;59.92;;
54795;SDS011;40693;43.884;20.340;2023-03-01T16:18:06;97.75;;;57.95;;
54795;SDS011;40693;43.884;20.340;2023-03-01T16:20:35;91.82;;;53.05;;
54795;SDS011;40693;43.884;20.340;2023-03-01T16:23:02;90.55;;;51.92;;
54795;SDS011;40693;43.884;20.340;2023-03-01T16:25:33;89.00;;;55.10;;
54795;SDS011;40693;43.884;20.340;2023-03-01T16:28:00;98.35;;;55.78;;
54795;SDS011;40693;43.884;20.340;2023-03-01T16:30:29;103.03;;;62.40;;
54795;SDS011;40693;43.884;20.340;2023-03-01T16:32:55;123.07;;;74.10;;
54795;SDS011;40693;43.884;20.340;2023-03-01T16:35:21;144.15;;;94.10;;
54795;SDS011;40693;43.884;20.340;2023-03-01T16:37:48;119.15;;;74.78;;
54795;SDS011;40693;43.884;20.340;2023-03-01T16:42:49;111.50;;;64.10;;
54795;SDS011;40693;43.884;20.340;2023-03-01T16:45:15;137.30;;;88.15;;
54795;SDS011;40693;43.884;20.340;2023-03-01T16:47:41;157.60;;;102.22;;
54795;SDS011;40693;43.884;20.340;2023-03-01T16:50:07;115.65;;;72.22;;
54795;SDS011;40693;43.884;20.340;2023-03-01T16:52:35;119.03;;;74.43;;
54795;SDS011;40693;43.884;20.340;2023-03-01T16:55:05;140.02;;;83.75;;